sensor_id;sensor_type;location;lat;lon;timestamp;pressure;altitude;pressure_sealevel;temperature;humidity
11830;BME280;5972;42.134;24.718;2023-01-30T00:00:52;100078.94;;;5.46;100.00
11830;BME280;5972;42.134;24.718;2023-01-30T00:03:20;100074.16;;;5.42;100.00
11830;BME280;5972;42.134;24.718;2023-01-30T00:05:48;100082.91;;;5.48;100.00
11830;BME280;5972;42.134;24.718;2023-01-30T00:08:15;100091.19;;;5.52;100.00
11830;BME280;5972;42.134;24.718;2023-01-30T00:10:44;100082.44;;;5.46;100.00
11830;BME280;5972;42.134;24.718;2023-01-30T00:13:11;100085.31;;;5.50;100.00
11830;BME280;5972;42.134;24.718;2023-01-30T00:15:39;100072.56;;;5.41;100.00
11830;BME280;5972;42.134;24.718;2023-01-30T00:18:06;100061.72;;;5.33;100.00
11830;BME280;5972;42.134;24.718;2023-01-30T00:20:33;100080.31;;;5.43;100.00
11830;BME280;5972;42.134;24.718;2023-01-30T00:22:59;100074.53;;;5.36;100.00
11830;BME280;5972;42.134;24.718;2023-01-30T00:25:29;100057.53;;;5.27;100.00
11830;BME280;5972;42.134;24.718;2023-01-30T00:27:59;100067.38;;;5.31;100.00
11830;BME280;5972;42.134;24.718;2023-01-30T00:30:26;100067.28;;;5.36;100.00
11830;BME280;5972;42.134;24.718;2023-01-30T00:32:54;100065.81;;;5.44;100.00
11830;BME280;5972;42.134;24.718;2023-01-30T00:35:21;100045.34;;;5.34;100.00
11830;BME280;5972;42.134;24.718;2023-01-30T00:37:53;100057.66;;;5.35;100.00
11830;BME280;5972;42.134;24.718;2023-01-30T00:40:20;100069.03;;;5.46;100.00
11830;BME280;5972;42.134;24.718;2023-01-30T00:42:47;100042.34;;;5.36;100.00
11830;BME280;5972;42.134;24.718;2023-01-30T00:45:32;100071.09;;;5.49;100.00
11830;BME280;5972;42.134;24.718;2023-01-30T00:48:21;100071.47;;;5.42;100.00
11830;BME280;5972;42.134;24.718;2023-01-30T00:50:48;100060.75;;;5.42;100.00
11830;BME280;5972;42.134;24.718;2023-01-30T00:53:15;100060.84;;;5.37;100.00
11830;BME280;5972;42.134;24.718;2023-01-30T00:55:42;100053.25;;;5.12;100.00
11830;BME280;5972;42.134;24.718;2023-01-30T00:58:10;100070.97;;;5.27;100.00
11830;BME280;5972;42.134;24.718;2023-01-30T01:00:39;100067.91;;;5.33;100.00
11830;BME280;5972;42.134;24.718;2023-01-30T01:03:06;100063.00;;;5.22;100.00
11830;BME280;5972;42.134;24.718;2023-01-30T01:05:33;100049.38;;;5.18;100.00
11830;BME280;5972;42.134;24.718;2023-01-30T01:08:00;100072.75;;;5.31;100.00
11830;BME280;5972;42.134;24.718;2023-01-30T01:10:27;100038.16;;;5.16;100.00
11830;BME280;5972;42.134;24.718;2023-01-30T01:12:54;100059.34;;;5.31;100.00
11830;BME280;5972;42.134;24.718;2023-01-30T01:15:22;100053.97;;;5.31;100.00
11830;BME280;5972;42.134;24.718;2023-01-30T01:17:50;100030.09;;;5.16;100.00
11830;BME280;5972;42.134;24.718;2023-01-30T01:20:18;100054.66;;;5.23;100.00
11830;BME280;5972;42.134;24.718;2023-01-30T01:22:45;100052.47;;;5.25;100.00
11830;BME280;5972;42.134;24.718;2023-01-30T01:25:15;100046.00;;;5.26;100.00
11830;BME280;5972;42.134;24.718;2023-01-30T01:27:43;100048.41;;;5.28;100.00
11830;BME280;5972;42.134;24.718;2023-01-30T01:30:11;100037.44;;;5.24;100.00
11830;BME280;5972;42.134;24.718;2023-01-30T01:32:39;100018.66;;;5.11;100.00
11830;BME280;5972;42.134;24.718;2023-01-30T01:35:08;100035.09;;;5.23;100.00
11830;BME280;5972;42.134;24.718;2023-01-30T01:37:35;100036.97;;;5.22;100.00
11830;BME280;5972;42.134;24.718;2023-01-30T01:40:03;100029.88;;;5.13;100.00
11830;BME280;5972;42.134;24.718;2023-01-30T01:42:47;100038.06;;;5.21;100.00
11830;BME280;5972;42.134;24.718;2023-01-30T01:45:17;100013.50;;;5.14;100.00
11830;BME280;5972;42.134;24.718;2023-01-30T01:47:53;100032.97;;;5.20;100.00
11830;BME280;5972;42.134;24.718;2023-01-30T01:50:27;100033.19;;;5.23;100.00
11830;BME280;5972;42.134;24.718;2023-01-30T01:52:57;100029.81;;;5.18;100.00
11830;BME280;5972;42.134;24.718;2023-01-30T01:55:26;100009.91;;;5.05;100.00
11830;BME280;5972;42.134;24.718;2023-01-30T01:57:55;100020.97;;;5.17;100.00
11830;BME280;5972;42.134;24.718;2023-01-30T02:00:25;100035.09;;;5.23;100.00
11830;BME280;5972;42.134;24.718;2023-01-30T02:02:55;100024.59;;;5.08;100.00
11830;BME280;5972;42.134;24.718;2023-01-30T02:05:25;99999.03;;;4.96;100.00
11830;BME280;5972;42.134;24.718;2023-01-30T02:07:58;100027.84;;;5.23;100.00
11830;BME280;5972;42.134;24.718;2023-01-30T02:10:39;100034.56;;;5.21;100.00
11830;BME280;5972;42.134;24.718;2023-01-30T02:13:08;100029.22;;;5.21;100.00
11830;BME280;5972;42.134;24.718;2023-01-30T02:15:35;100000.19;;;5.09;100.00
11830;BME280;5972;42.134;24.718;2023-01-30T02:18:03;100033.50;;;5.22;100.00
11830;BME280;5972;42.134;24.718;2023-01-30T02:20:47;100025.63;;;5.25;100.00
11830;BME280;5972;42.134;24.718;2023-01-30T02:23:30;100023.47;;;5.27;100.00
11830;BME280;5972;42.134;24.718;2023-01-30T02:29:38;100019.97;;;5.27;98.64
11830;BME280;5972;42.134;24.718;2023-01-30T02:32:19;100011.75;;;5.23;98.76
11830;BME280;5972;42.134;24.718;2023-01-30T02:34:56;100017.59;;;5.25;98.69
11830;BME280;5972;42.134;24.718;2023-01-30T02:37:33;100018.47;;;5.21;98.93
11830;BME280;5972;42.134;24.718;2023-01-30T02:40:17;99999.09;;;5.10;98.36
11830;BME280;5972;42.134;24.718;2023-01-30T02:42:53;100012.81;;;5.22;97.11
11830;BME280;5972;42.134;24.718;2023-01-30T02:45:29;100001.78;;;5.10;97.44
11830;BME280;5972;42.134;24.718;2023-01-30T02:48:02;99977.69;;;4.91;97.91
11830;BME280;5972;42.134;24.718;2023-01-30T02:50:33;100015.38;;;5.14;97.93
11830;BME280;5972;42.134;24.718;2023-01-30T02:53:03;99987.13;;;4.89;97.85
11830;BME280;5972;42.134;24.718;2023-01-30T02:55:30;100015.47;;;5.09;97.79
11830;BME280;5972;42.134;24.718;2023-01-30T02:57:57;100019.78;;;4.91;99.93
11830;BME280;5972;42.134;24.718;2023-01-30T03:00:51;100012.69;;;5.00;98.83
11830;BME280;5972;42.134;24.718;2023-01-30T03:03:42;100009.88;;;4.91;99.08
11830;BME280;5972;42.134;24.718;2023-01-30T03:06:29;100006.09;;;4.92;99.82
11830;BME280;5972;42.134;24.718;2023-01-30T03:09:06;99991.41;;;4.90;99.15
11830;BME280;5972;42.134;24.718;2023-01-30T03:11:43;100002.44;;;5.02;97.62
11830;BME280;5972;42.134;24.718;2023-01-30T03:14:18;100003.31;;;4.97;96.93
11830;BME280;5972;42.134;24.718;2023-01-30T03:16:50;100000.91;;;4.82;98.18
11830;BME280;5972;42.134;24.718;2023-01-30T03:19:20;99964.22;;;4.64;97.49
11830;BME280;5972;42.134;24.718;2023-01-30T03:21:47;99996.78;;;4.90;97.64
11830;BME280;5972;42.134;24.718;2023-01-30T03:24:14;99989.22;;;4.92;95.80
11830;BME280;5972;42.134;24.718;2023-01-30T03:26:44;99996.88;;;4.98;95.79
11830;BME280;5972;42.134;24.718;2023-01-30T03:29:12;99988.53;;;5.00;94.75
11830;BME280;5972;42.134;24.718;2023-01-30T03:31:46;99969.53;;;4.83;95.53
11830;BME280;5972;42.134;24.718;2023-01-30T03:34:12;99958.41;;;4.76;95.23
11830;BME280;5972;42.134;24.718;2023-01-30T03:36:41;99984.56;;;4.97;95.90
11830;BME280;5972;42.134;24.718;2023-01-30T03:39:07;99981.97;;;4.92;94.75
11830;BME280;5972;42.134;24.718;2023-01-30T03:41:34;99986.03;;;4.90;95.85
11830;BME280;5972;42.134;24.718;2023-01-30T03:44:01;99985.03;;;4.86;96.10
11830;BME280;5972;42.134;24.718;2023-01-30T03:46:28;99983.06;;;4.91;94.96
11830;BME280;5972;42.134;24.718;2023-01-30T03:48:55;99985.44;;;4.93;95.67
11830;BME280;5972;42.134;24.718;2023-01-30T03:51:22;99988.50;;;4.86;96.14
11830;BME280;5972;42.134;24.718;2023-01-30T03:53:50;99986.03;;;4.90;95.42
11830;BME280;5972;42.134;24.718;2023-01-30T03:56:16;99985.34;;;4.98;95.74
11830;BME280;5972;42.134;24.718;2023-01-30T03:58:43;99951.31;;;4.66;94.88
11830;BME280;5972;42.134;24.718;2023-01-30T04:01:10;99987.88;;;4.76;96.64
11830;BME280;5972;42.134;24.718;2023-01-30T04:03:37;99999.22;;;4.86;96.65
11830;BME280;5972;42.134;24.718;2023-01-30T04:06:04;99959.47;;;4.75;96.27
11830;BME280;5972;42.134;24.718;2023-01-30T04:08:31;99965.88;;;4.79;95.44
11830;BME280;5972;42.134;24.718;2023-01-30T04:10:59;99972.94;;;4.88;94.35
11830;BME280;5972;42.134;24.718;2023-01-30T04:13:25;99985.97;;;4.95;94.36
11830;BME280;5972;42.134;24.718;2023-01-30T04:15:52;99976.88;;;4.91;93.92
11830;BME280;5972;42.134;24.718;2023-01-30T04:18:19;99950.94;;;4.73;92.91
11830;BME280;5972;42.134;24.718;2023-01-30T04:20:45;99986.03;;;4.90;93.19
11830;BME280;5972;42.134;24.718;2023-01-30T04:23:12;99985.16;;;4.94;93.16
11830;BME280;5972;42.134;24.718;2023-01-30T04:25:39;99982.94;;;4.83;93.48
11830;BME280;5972;42.134;24.718;2023-01-30T04:28:07;99982.06;;;4.87;94.20
11830;BME280;5972;42.134;24.718;2023-01-30T04:30:34;99976.69;;;4.87;94.09
11830;BME280;5972;42.134;24.718;2023-01-30T04:33:01;99979.00;;;4.94;94.39
11830;BME280;5972;42.134;24.718;2023-01-30T04:35:27;99965.88;;;4.79;92.83
11830;BME280;5972;42.134;24.718;2023-01-30T04:37:54;99978.66;;;4.82;93.02
11830;BME280;5972;42.134;24.718;2023-01-30T04:40:21;99964.34;;;4.73;93.66
11830;BME280;5972;42.134;24.718;2023-01-30T04:42:48;99984.53;;;4.84;92.99
11830;BME280;5972;42.134;24.718;2023-01-30T04:45:16;99983.81;;;4.78;92.87
11830;BME280;5972;42.134;24.718;2023-01-30T04:47:43;99978.47;;;4.78;92.80
11830;BME280;5972;42.134;24.718;2023-01-30T04:50:10;99980.84;;;4.80;93.23
11830;BME280;5972;42.134;24.718;2023-01-30T04:52:36;99980.03;;;4.79;93.27
11830;BME280;5972;42.134;24.718;2023-01-30T04:55:04;99970.78;;;4.72;93.64
11830;BME280;5972;42.134;24.718;2023-01-30T04:57:30;99975.56;;;4.75;94.29
11830;BME280;5972;42.134;24.718;2023-01-30T04:59:57;99972.41;;;4.73;93.57
11830;BME280;5972;42.134;24.718;2023-01-30T05:02:25;99974.19;;;4.77;93.86
11830;BME280;5972;42.134;24.718;2023-01-30T05:04:52;99967.31;;;4.71;93.67
11830;BME280;5972;42.134;24.718;2023-01-30T05:07:19;99970.88;;;4.67;94.29
11830;BME280;5972;42.134;24.718;2023-01-30T05:09:46;99969.75;;;4.54;95.47
11830;BME280;5972;42.134;24.718;2023-01-30T05:12:12;99976.69;;;4.55;94.75
11830;BME280;5972;42.134;24.718;2023-01-30T05:14:39;99976.19;;;4.53;95.90
11830;BME280;5972;42.134;24.718;2023-01-30T05:17:06;99983.56;;;4.61;95.57
11830;BME280;5972;42.134;24.718;2023-01-30T05:19:35;99959.19;;;4.44;95.72
11830;BME280;5972;42.134;24.718;2023-01-30T05:22:02;99979.94;;;4.52;95.00
11830;BME280;5972;42.134;24.718;2023-01-30T05:24:29;99982.53;;;4.57;93.02
11830;BME280;5972;42.134;24.718;2023-01-30T05:26:55;99975.81;;;4.59;92.47
11830;BME280;5972;42.134;24.718;2023-01-30T05:29:22;99952.44;;;4.46;93.58
11830;BME280;5972;42.134;24.718;2023-01-30T05:31:49;99977.91;;;4.63;94.87
11830;BME280;5972;42.134;24.718;2023-01-30T05:34:16;99982.97;;;4.64;93.63
11830;BME280;5972;42.134;24.718;2023-01-30T05:36:44;99958.50;;;4.52;94.01
11830;BME280;5972;42.134;24.718;2023-01-30T05:39:11;99990.00;;;4.60;94.02
11830;BME280;5972;42.134;24.718;2023-01-30T05:41:37;99991.25;;;4.68;93.38
11830;BME280;5972;42.134;24.718;2023-01-30T05:44:04;99973.94;;;4.60;94.04
11830;BME280;5972;42.134;24.718;2023-01-30T05:46:31;99979.75;;;4.48;94.40
11830;BME280;5972;42.134;24.718;2023-01-30T05:48:58;99978.28;;;4.56;95.01
11830;BME280;5972;42.134;24.718;2023-01-30T05:51:26;99983.13;;;4.54;94.84
11830;BME280;5972;42.134;24.718;2023-01-30T05:53:54;99981.47;;;4.58;94.49
11830;BME280;5972;42.134;24.718;2023-01-30T05:56:22;99977.41;;;4.60;93.86
11830;BME280;5972;42.134;24.718;2023-01-30T05:58:49;99986.44;;;4.65;94.31
11830;BME280;5972;42.134;24.718;2023-01-30T06:01:16;99962.78;;;4.53;93.29
11830;BME280;5972;42.134;24.718;2023-01-30T06:03:43;99977.03;;;4.67;92.76
11830;BME280;5972;42.134;24.718;2023-01-30T06:06:13;99985.56;;;4.69;92.93
11830;BME280;5972;42.134;24.718;2023-01-30T06:08:40;99981.53;;;4.72;93.00
11830;BME280;5972;42.134;24.718;2023-01-30T06:11:10;99984.47;;;4.70;92.54
11830;BME280;5972;42.134;24.718;2023-01-30T06:13:37;99986.09;;;4.71;92.72
11830;BME280;5972;42.134;24.718;2023-01-30T06:16:05;99987.38;;;4.74;92.59
11830;BME280;5972;42.134;24.718;2023-01-30T06:18:32;99966.06;;;4.50;92.17
11830;BME280;5972;42.134;24.718;2023-01-30T06:20:59;99992.72;;;4.74;92.43
11830;BME280;5972;42.134;24.718;2023-01-30T06:23:27;99993.25;;;4.76;91.85
11830;BME280;5972;42.134;24.718;2023-01-30T06:25:54;99995.34;;;4.79;92.56
11830;BME280;5972;42.134;24.718;2023-01-30T06:28:23;99990.66;;;4.71;92.53
11830;BME280;5972;42.134;24.718;2023-01-30T06:30:51;99988.38;;;4.78;91.54
11830;BME280;5972;42.134;24.718;2023-01-30T06:33:18;99985.88;;;4.68;91.39
11830;BME280;5972;42.134;24.718;2023-01-30T06:35:47;99988.25;;;4.69;90.94
11830;BME280;5972;42.134;24.718;2023-01-30T06:38:15;100001.28;;;4.76;92.95
11830;BME280;5972;42.134;24.718;2023-01-30T06:40:46;99995.13;;;4.75;90.93
11830;BME280;5972;42.134;24.718;2023-01-30T06:43:13;99997.53;;;4.77;91.18
11830;BME280;5972;42.134;24.718;2023-01-30T06:45:42;99994.84;;;4.77;91.20
11830;BME280;5972;42.134;24.718;2023-01-30T06:48:09;99994.75;;;4.82;91.41
11830;BME280;5972;42.134;24.718;2023-01-30T06:50:36;99998.03;;;4.79;91.18
11830;BME280;5972;42.134;24.718;2023-01-30T06:53:04;99999.81;;;4.83;92.67
11830;BME280;5972;42.134;24.718;2023-01-30T06:55:32;99999.75;;;4.88;90.22
11830;BME280;5972;42.134;24.718;2023-01-30T06:58:01;99996.13;;;4.79;90.69
11830;BME280;5972;42.134;24.718;2023-01-30T07:00:28;99999.41;;;4.76;91.66
11830;BME280;5972;42.134;24.718;2023-01-30T07:02:56;99964.00;;;4.60;91.45
11830;BME280;5972;42.134;24.718;2023-01-30T07:05:23;99966.19;;;4.58;91.16
11830;BME280;5972;42.134;24.718;2023-01-30T07:07:50;100007.88;;;4.83;90.68
11830;BME280;5972;42.134;24.718;2023-01-30T07:10:17;99994.94;;;4.85;90.62
11830;BME280;5972;42.134;24.718;2023-01-30T07:12:44;99975.56;;;4.75;89.96
11830;BME280;5972;42.134;24.718;2023-01-30T07:15:12;99980.75;;;4.85;88.50
11830;BME280;5972;42.134;24.718;2023-01-30T07:17:39;100000.81;;;4.87;88.87
11830;BME280;5972;42.134;24.718;2023-01-30T07:20:09;99997.78;;;4.94;90.23
11830;BME280;5972;42.134;24.718;2023-01-30T07:22:36;99993.69;;;4.96;89.02
11830;BME280;5972;42.134;24.718;2023-01-30T07:25:04;100005.34;;;5.06;88.42
11830;BME280;5972;42.134;24.718;2023-01-30T07:27:31;99999.19;;;5.05;87.85
11830;BME280;5972;42.134;24.718;2023-01-30T07:29:58;100006.00;;;4.97;87.80
11830;BME280;5972;42.134;24.718;2023-01-30T07:32:24;100013.25;;;4.97;89.09
11830;BME280;5972;42.134;24.718;2023-01-30T07:34:52;100006.44;;;5.05;88.69
11830;BME280;5972;42.134;24.718;2023-01-30T07:37:20;100004.63;;;5.00;87.16
11830;BME280;5972;42.134;24.718;2023-01-30T07:39:46;100014.09;;;5.11;87.27
11830;BME280;5972;42.134;24.718;2023-01-30T07:42:13;100003.38;;;5.11;87.02
11830;BME280;5972;42.134;24.718;2023-01-30T07:44:40;99969.53;;;4.96;86.56
11830;BME280;5972;42.134;24.718;2023-01-30T07:47:07;100000.59;;;5.16;87.03
11830;BME280;5972;42.134;24.718;2023-01-30T07:49:33;100001.59;;;5.20;86.86
11830;BME280;5972;42.134;24.718;2023-01-30T07:52:00;99989.81;;;5.02;87.60
11830;BME280;5972;42.134;24.718;2023-01-30T07:54:28;99984.38;;;5.08;87.44
11830;BME280;5972;42.134;24.718;2023-01-30T07:56:55;100000.78;;;5.20;86.86
11830;BME280;5972;42.134;24.718;2023-01-30T07:59:22;99990.84;;;5.07;87.43
11830;BME280;5972;42.134;24.718;2023-01-30T08:01:48;99990.84;;;5.20;87.37
11830;BME280;5972;42.134;24.718;2023-01-30T08:04:15;99981.09;;;5.24;86.34
11830;BME280;5972;42.134;24.718;2023-01-30T08:06:42;99979.03;;;5.21;84.52
11830;BME280;5972;42.134;24.718;2023-01-30T08:09:09;99990.38;;;5.32;84.45
11830;BME280;5972;42.134;24.718;2023-01-30T08:11:37;99996.03;;;5.30;85.48
11830;BME280;5972;42.134;24.718;2023-01-30T08:14:04;99989.38;;;5.28;84.35
11830;BME280;5972;42.134;24.718;2023-01-30T08:16:30;99984.41;;;5.21;85.12
11830;BME280;5972;42.134;24.718;2023-01-30T08:18:58;99994.38;;;5.34;86.39
11830;BME280;5972;42.134;24.718;2023-01-30T08:21:25;99992.75;;;5.33;85.05
11830;BME280;5972;42.134;24.718;2023-01-30T08:23:52;99984.63;;;5.38;83.67
11830;BME280;5972;42.134;24.718;2023-01-30T08:26:19;99978.84;;;5.31;82.87
11830;BME280;5972;42.134;24.718;2023-01-30T08:28:47;99984.44;;;5.35;83.03
11830;BME280;5972;42.134;24.718;2023-01-30T08:31:16;99996.94;;;5.39;83.40
11830;BME280;5972;42.134;24.718;2023-01-30T08:33:45;99980.44;;;5.46;84.06
11830;BME280;5972;42.134;24.718;2023-01-30T08:36:11;99972.09;;;5.34;84.00
11830;BME280;5972;42.134;24.718;2023-01-30T08:38:38;99983.44;;;5.44;82.81
11830;BME280;5972;42.134;24.718;2023-01-30T08:41:05;99978.75;;;5.50;82.63
11830;BME280;5972;42.134;24.718;2023-01-30T08:43:34;99982.13;;;5.56;83.32
11830;BME280;5972;42.134;24.718;2023-01-30T08:46:02;99979.22;;;5.52;82.91
11830;BME280;5972;42.134;24.718;2023-01-30T08:48:29;99982.72;;;5.53;81.66
11830;BME280;5972;42.134;24.718;2023-01-30T08:50:57;99959.97;;;5.36;82.47
11830;BME280;5972;42.134;24.718;2023-01-30T08:53:23;99965.94;;;5.33;83.82
11830;BME280;5972;42.134;24.718;2023-01-30T08:55:51;99941.06;;;5.14;83.83
11830;BME280;5972;42.134;24.718;2023-01-30T08:58:21;99952.41;;;5.38;82.56
11830;BME280;5972;42.134;24.718;2023-01-30T09:00:48;99974.47;;;5.49;82.58
11830;BME280;5972;42.134;24.718;2023-01-30T09:03:17;99956.31;;;5.46;82.88
11830;BME280;5972;42.134;24.718;2023-01-30T09:05:44;99954.78;;;5.54;82.59
11830;BME280;5972;42.134;24.718;2023-01-30T09:08:11;99960.66;;;5.56;83.01
11830;BME280;5972;42.134;24.718;2023-01-30T09:10:38;99933.44;;;5.35;82.61
11830;BME280;5972;42.134;24.718;2023-01-30T09:13:07;99960.16;;;5.67;82.84
11830;BME280;5972;42.134;24.718;2023-01-30T09:15:34;99945.72;;;5.63;82.40
11830;BME280;5972;42.134;24.718;2023-01-30T09:18:01;99937.19;;;5.48;81.51
11830;BME280;5972;42.134;24.718;2023-01-30T09:20:30;99955.25;;;5.83;80.95
11830;BME280;5972;42.134;24.718;2023-01-30T09:22:57;99950.59;;;5.89;78.77
11830;BME280;5972;42.134;24.718;2023-01-30T09:25:24;99932.88;;;5.88;77.01
11830;BME280;5972;42.134;24.718;2023-01-30T09:27:51;99943.22;;;5.94;76.81
11830;BME280;5972;42.134;24.718;2023-01-30T09:30:18;99943.72;;;5.82;77.65
11830;BME280;5972;42.134;24.718;2023-01-30T09:32:45;99939.38;;;5.73;78.01
11830;BME280;5972;42.134;24.718;2023-01-30T09:35:12;99928.09;;;5.84;79.72
11830;BME280;5972;42.134;24.718;2023-01-30T09:37:47;99925.34;;;5.90;79.42
11830;BME280;5972;42.134;24.718;2023-01-30T09:40:14;99925.81;;;5.92;80.26
11830;BME280;5972;42.134;24.718;2023-01-30T09:43:03;99925.50;;;5.93;80.07
11830;BME280;5972;42.134;24.718;2023-01-30T09:45:49;99898.78;;;5.88;80.03
11830;BME280;5972;42.134;24.718;2023-01-30T09:48:21;99885.84;;;5.90;79.55
11830;BME280;5972;42.134;24.718;2023-01-30T09:51:14;99886.16;;;5.89;78.81
11830;BME280;5972;42.134;24.718;2023-01-30T09:53:57;99897.88;;;5.93;79.18
11830;BME280;5972;42.134;24.718;2023-01-30T09:56:25;99863.28;;;5.77;78.24
11830;BME280;5972;42.134;24.718;2023-01-30T09:58:55;99876.59;;;5.82;77.65
11830;BME280;5972;42.134;24.718;2023-01-30T10:01:27;99878.66;;;5.99;77.85
11830;BME280;5972;42.134;24.718;2023-01-30T10:04:05;99877.47;;;6.14;78.13
11830;BME280;5972;42.134;24.718;2023-01-30T10:06:44;99879.28;;;6.18;78.00
11830;BME280;5972;42.134;24.718;2023-01-30T10:09:16;99844.16;;;6.15;76.93
11830;BME280;5972;42.134;24.718;2023-01-30T10:11:57;99846.03;;;5.92;75.12
11830;BME280;5972;42.134;24.718;2023-01-30T10:14:39;99855.28;;;6.00;74.13
11830;BME280;5972;42.134;24.718;2023-01-30T10:17:26;99852.97;;;6.07;74.59
11830;BME280;5972;42.134;24.718;2023-01-30T10:20:05;99848.47;;;6.02;74.61
11830;BME280;5972;42.134;24.718;2023-01-30T10:22:45;99843.34;;;6.14;73.71
11830;BME280;5972;42.134;24.718;2023-01-30T10:25:24;99815.41;;;6.15;74.48
11830;BME280;5972;42.134;24.718;2023-01-30T10:28:00;99827.97;;;6.29;73.50
11830;BME280;5972;42.134;24.718;2023-01-30T10:30:29;99833.38;;;6.37;72.01
11830;BME280;5972;42.134;24.718;2023-01-30T10:32:57;99826.00;;;6.20;71.43
11830;BME280;5972;42.134;24.718;2023-01-30T10:35:31;99821.59;;;6.24;72.79
11830;BME280;5972;42.134;24.718;2023-01-30T10:38:07;99808.44;;;6.14;74.57
11830;BME280;5972;42.134;24.718;2023-01-30T10:40:42;99807.16;;;6.43;74.02
11830;BME280;5972;42.134;24.718;2023-01-30T10:43:15;99804.34;;;6.48;73.33
11830;BME280;5972;42.134;24.718;2023-01-30T10:45:50;99795.41;;;6.61;70.39
11830;BME280;5972;42.134;24.718;2023-01-30T10:51:24;99782.09;;;6.56;69.36
11830;BME280;5972;42.134;24.718;2023-01-30T10:53:57;99773.72;;;6.57;69.89
11830;BME280;5972;42.134;24.718;2023-01-30T10:56:36;99756.44;;;6.50;68.71
11830;BME280;5972;42.134;24.718;2023-01-30T10:59:22;99765.50;;;6.62;69.54
11830;BME280;5972;42.134;24.718;2023-01-30T11:01:57;99759.69;;;6.78;69.23
11830;BME280;5972;42.134;24.718;2023-01-30T11:04:29;99743.31;;;6.96;68.20
11830;BME280;5972;42.134;24.718;2023-01-30T11:06:57;99743.59;;;6.95;66.75
11830;BME280;5972;42.134;24.718;2023-01-30T11:09:37;99724.75;;;6.78;67.19
11830;BME280;5972;42.134;24.718;2023-01-30T11:12:37;99685.00;;;6.66;65.63
11830;BME280;5972;42.134;24.718;2023-01-30T11:17:00;99685.16;;;6.69;65.96
11830;BME280;5972;42.134;24.718;2023-01-30T11:18:55;99677.44;;;6.77;65.72
11830;BME280;5972;42.134;24.718;2023-01-30T11:21:29;99712.75;;;7.01;66.05
11830;BME280;5972;42.134;24.718;2023-01-30T11:24:13;99692.66;;;6.90;65.29
11830;BME280;5972;42.134;24.718;2023-01-30T11:26:42;99701.50;;;7.25;65.44
11830;BME280;5972;42.134;24.718;2023-01-30T11:29:24;99701.53;;;7.07;65.92
11830;BME280;5972;42.134;24.718;2023-01-30T11:31:52;99693.13;;;7.00;64.44
11830;BME280;5972;42.134;24.718;2023-01-30T11:34:22;99680.94;;;7.03;65.68
11830;BME280;5972;42.134;24.718;2023-01-30T11:36:50;99640.44;;;6.74;65.46
11830;BME280;5972;42.134;24.718;2023-01-30T11:39:26;99673.19;;;6.93;65.48
11830;BME280;5972;42.134;24.718;2023-01-30T11:41:58;99672.25;;;6.89;65.08
11830;BME280;5972;42.134;24.718;2023-01-30T11:44:32;99666.22;;;6.92;65.79
11830;BME280;5972;42.134;24.718;2023-01-30T11:47:01;99654.38;;;6.84;66.24
11830;BME280;5972;42.134;24.718;2023-01-30T11:49:32;99651.34;;;6.77;67.61
11830;BME280;5972;42.134;24.718;2023-01-30T11:52:02;99620.34;;;6.62;67.58
11830;BME280;5972;42.134;24.718;2023-01-30T11:54:32;99641.72;;;6.85;68.46
11830;BME280;5972;42.134;24.718;2023-01-30T11:57:03;99640.56;;;6.86;67.57
11830;BME280;5972;42.134;24.718;2023-01-30T11:59:34;99641.69;;;6.76;59.88
11830;BME280;5972;42.134;24.718;2023-01-30T12:02:04;99644.84;;;6.69;55.41
11830;BME280;5972;42.134;24.718;2023-01-30T12:04:36;99631.22;;;6.49;55.84
11830;BME280;5972;42.134;24.718;2023-01-30T12:07:05;99619.38;;;6.50;55.95
11830;BME280;5972;42.134;24.718;2023-01-30T12:09:34;99622.88;;;6.67;55.18
11830;BME280;5972;42.134;24.718;2023-01-30T12:12:02;99618.44;;;6.63;53.75
11830;BME280;5972;42.134;24.718;2023-01-30T12:14:38;99605.47;;;6.74;53.24
11830;BME280;5972;42.134;24.718;2023-01-30T12:17:15;99599.13;;;6.69;53.11
11830;BME280;5972;42.134;24.718;2023-01-30T12:19:53;99604.03;;;6.67;52.97
11830;BME280;5972;42.134;24.718;2023-01-30T12:22:27;99606.56;;;6.55;52.98
11830;BME280;5972;42.134;24.718;2023-01-30T12:24:58;99595.81;;;6.64;53.22
11830;BME280;5972;42.134;24.718;2023-01-30T12:27:34;99588.88;;;6.63;54.02
11830;BME280;5972;42.134;24.718;2023-01-30T12:30:14;99600.56;;;6.76;54.07
11830;BME280;5972;42.134;24.718;2023-01-30T12:32:45;99564.66;;;6.46;52.46
11830;BME280;5972;42.134;24.718;2023-01-30T12:35:14;99600.25;;;6.68;53.21
11830;BME280;5972;42.134;24.718;2023-01-30T12:37:53;99589.50;;;6.77;53.06
11830;BME280;5972;42.134;24.718;2023-01-30T12:40:41;99586.50;;;6.61;52.08
11830;BME280;5972;42.134;24.718;2023-01-30T12:43:28;99573.34;;;6.34;52.71
11830;BME280;5972;42.134;24.718;2023-01-30T12:46:10;99592.19;;;6.68;52.23
11830;BME280;5972;42.134;24.718;2023-01-30T12:49:00;99599.13;;;6.69;53.50
11830;BME280;5972;42.134;24.718;2023-01-30T12:51:41;99580.94;;;6.66;53.74
11830;BME280;5972;42.134;24.718;2023-01-30T12:54:25;99571.00;;;6.67;54.46
11830;BME280;5972;42.134;24.718;2023-01-30T12:57:00;99575.09;;;6.64;55.61
11830;BME280;5972;42.134;24.718;2023-01-30T12:59:36;99562.13;;;6.66;55.56
11830;BME280;5972;42.134;24.718;2023-01-30T13:02:28;99561.66;;;6.73;56.52
11830;BME280;5972;42.134;24.718;2023-01-30T13:05:09;99558.31;;;6.59;55.87
11830;BME280;5972;42.134;24.718;2023-01-30T13:08:28;99550.09;;;6.64;56.92
11830;BME280;5972;42.134;24.718;2023-01-30T13:11:11;99540.31;;;6.51;56.88
11830;BME280;5972;42.134;24.718;2023-01-30T13:13:49;99538.88;;;6.28;56.20
11830;BME280;5972;42.134;24.718;2023-01-30T13:16:23;99545.69;;;6.51;56.45
11830;BME280;5972;42.134;24.718;2023-01-30T13:19:02;99520.03;;;6.36;56.92
11830;BME280;5972;42.134;24.718;2023-01-30T13:21:37;99545.97;;;6.58;56.99
11830;BME280;5972;42.134;24.718;2023-01-30T13:24:16;99532.09;;;6.56;57.64
11830;BME280;5972;42.134;24.718;2023-01-30T13:26:45;99540.28;;;6.59;57.84
11830;BME280;5972;42.134;24.718;2023-01-30T13:29:22;99509.63;;;6.26;57.32
11830;BME280;5972;42.134;24.718;2023-01-30T13:31:53;99536.81;;;6.59;57.39